createdAt,value
2018-06-24T00:00:06.877Z,0
2018-06-24T00:01:15.741Z,0
2018-06-24T00:02:24.870Z,0
2018-06-24T00:03:33.728Z,0
2018-06-24T00:04:42.589Z,0
2018-06-24T00:05:51.725Z,0
2018-06-24T00:07:00.582Z,0
2018-06-24T00:08:09.445Z,0
2018-06-24T00:09:18.585Z,0
2018-06-24T00:10:27.594Z,0
2018-06-24T00:11:36.454Z,0
2018-06-24T00:12:45.596Z,0
2018-06-24T00:13:54.521Z,0
2018-06-24T00:15:03.687Z,0
2018-06-24T00:16:12.879Z,0
2018-06-24T00:17:21.738Z,0
2018-06-24T00:18:30.596Z,0
2018-06-24T00:19:39.450Z,0
2018-06-24T00:20:48.598Z,0
2018-06-24T00:21:57.783Z,0
2018-06-24T00:23:06.641Z,0
2018-06-24T00:24:15.774Z,0
2018-06-24T00:25:24.631Z,0
2018-06-24T00:26:33.492Z,0
2018-06-24T00:27:42.500Z,0
2018-06-24T00:28:51.358Z,0
2018-06-24T00:30:00.217Z,0
2018-06-24T00:31:09.078Z,0
2018-06-24T00:32:18.209Z,0
2018-06-24T00:33:27.217Z,0
2018-06-24T00:34:36.077Z,0
2018-06-24T00:35:44.933Z,0
2018-06-24T00:36:54.068Z,0
2018-06-24T00:38:02.924Z,0
2018-06-24T00:39:11.883Z,0
2018-06-24T00:40:20.741Z,0
2018-06-24T00:41:29.598Z,0
2018-06-24T00:42:38.462Z,0
2018-06-24T00:43:47.318Z,0
2018-06-24T00:44:56.529Z,0
2018-06-24T00:46:05.659Z,0
2018-06-24T00:47:14.518Z,0
2018-06-24T00:48:23.658Z,0
2018-06-24T00:49:32.516Z,0
2018-06-24T00:50:41.799Z,0
2018-06-24T00:51:50.933Z,0
2018-06-24T00:52:59.785Z,0
2018-06-24T00:54:08.645Z,0
2018-06-24T00:55:17.504Z,0
2018-06-24T00:56:26.463Z,0
2018-06-24T00:57:35.321Z,0
2018-06-24T00:58:44.178Z,0
2018-06-24T00:59:53.328Z,0
2018-06-24T01:01:02.492Z,0
2018-06-24T01:02:11.400Z,0
2018-06-24T01:03:20.255Z,0
2018-06-24T01:04:29.115Z,0
2018-06-24T01:05:38.249Z,0
2018-06-24T01:06:47.381Z,0
2018-06-24T01:07:56.240Z,0
2018-06-24T01:09:05.098Z,0
2018-06-24T01:10:13.954Z,0
2018-06-24T01:11:22.813Z,0
2018-06-24T01:12:31.669Z,0
2018-06-24T01:13:40.528Z,0
2018-06-24T01:14:49.663Z,0
2018-06-24T01:15:58.801Z,0
2018-06-24T01:17:07.660Z,0
2018-06-24T01:18:16.798Z,0
2018-06-24T01:19:25.703Z,0
2018-06-24T01:20:34.837Z,0
2018-06-24T01:21:43.972Z,0
2018-06-24T01:22:52.832Z,0
2018-06-24T01:24:01.687Z,0
2018-06-24T01:25:10.898Z,0
2018-06-24T01:26:20.032Z,0
2018-06-24T01:27:28.889Z,0
2018-06-24T01:28:38.023Z,0
2018-06-24T01:29:47.161Z,0
2018-06-24T01:30:56.649Z,0
2018-06-24T01:32:05.511Z,0
2018-06-24T01:33:14.366Z,0
2018-06-24T01:34:23.223Z,0
2018-06-24T01:35:32.081Z,0
2018-06-24T01:36:41.038Z,0
2018-06-24T01:37:49.900Z,0
2018-06-24T01:38:59.039Z,0
2018-06-24T01:40:08.180Z,0
2018-06-24T01:41:17.602Z,0
2018-06-24T01:42:26.736Z,0
2018-06-24T01:43:35.598Z,0
2018-06-24T01:44:44.453Z,0
2018-06-24T01:45:53.311Z,0
2018-06-24T01:47:02.455Z,0
2018-06-24T01:48:11.467Z,0
2018-06-24T01:49:20.323Z,0
2018-06-24T01:50:29.179Z,0
2018-06-24T01:51:38.322Z,0
2018-06-24T01:52:47.745Z,0
2018-06-24T01:53:57.031Z,0
2018-06-24T01:55:05.891Z,0
2018-06-24T01:56:15.026Z,0
2018-06-24T01:57:24.161Z,0
2018-06-24T01:58:33.573Z,0
2018-06-24T01:59:42.766Z,0
2018-06-24T02:00:51.627Z,0
2018-06-24T02:02:00.483Z,0
2018-06-24T02:03:09.618Z,0
2018-06-24T02:04:18.479Z,0
2018-06-24T02:05:27.338Z,0
2018-06-24T02:06:36.197Z,0
2018-06-24T02:07:45.060Z,0
2018-06-24T02:08:53.919Z,0
2018-06-24T02:10:02.771Z,0
2018-06-24T02:11:11.980Z,0
2018-06-24T02:12:20.835Z,0
2018-06-24T02:13:29.696Z,0
2018-06-24T02:14:38.552Z,0
2018-06-24T02:15:47.687Z,0
2018-06-24T02:16:56.594Z,0
2018-06-24T02:18:05.455Z,0
2018-06-24T02:19:14.869Z,0
2018-06-24T02:20:23.731Z,0
2018-06-24T02:21:32.586Z,0
2018-06-24T02:22:41.444Z,0
2018-06-24T02:23:50.581Z,0
2018-06-24T02:24:59.442Z,0
2018-06-24T02:26:08.854Z,0
2018-06-24T02:27:17.712Z,0
2018-06-24T02:28:26.897Z,0
2018-06-24T02:29:35.757Z,4
2018-06-24T02:30:44.943Z,4
2018-06-24T02:31:54.076Z,4
2018-06-24T02:33:02.939Z,0
2018-06-24T02:34:12.081Z,4
2018-06-24T02:35:21.495Z,0
2018-06-24T02:36:30.360Z,4
2018-06-24T02:37:39.226Z,4
2018-06-24T02:38:48.360Z,4
2018-06-24T02:39:57.882Z,8
2018-06-24T02:41:07.590Z,4
2018-06-24T02:42:16.726Z,4
2018-06-24T02:43:25.867Z,4
2018-06-24T02:44:35.277Z,8
2018-06-24T02:45:44.583Z,8
2018-06-24T02:46:53.723Z,8
2018-06-24T02:48:02.858Z,8
2018-06-24T02:49:11.715Z,8
2018-06-24T02:50:20.576Z,12
2018-06-24T02:51:29.683Z,12
2018-06-24T02:52:38.552Z,8
2018-06-24T02:53:47.820Z,12
2018-06-24T02:54:56.917Z,12
2018-06-24T02:56:06.057Z,16
2018-06-24T02:57:14.966Z,16
2018-06-24T02:58:24.100Z,20
2018-06-24T02:59:32.964Z,24
2018-06-24T03:00:41.834Z,20
2018-06-24T03:01:51.244Z,24
2018-06-24T03:03:00.203Z,24
2018-06-24T03:04:09.381Z,24
2018-06-24T03:05:18.791Z,28
2018-06-24T03:06:27.648Z,28
2018-06-24T03:07:36.512Z,24
2018-06-24T03:08:46.035Z,24
2018-06-24T03:09:54.939Z,32
2018-06-24T03:11:04.074Z,40
2018-06-24T03:12:12.936Z,48
2018-06-24T03:13:22.359Z,44
2018-06-24T03:14:31.599Z,44
2018-06-24T03:15:41.014Z,40
2018-06-24T03:16:49.872Z,44
2018-06-24T03:17:59.362Z,48
2018-06-24T03:19:08.227Z,56
2018-06-24T03:20:17.462Z,52
2018-06-24T03:21:26.616Z,52
2018-06-24T03:22:35.468Z,52
2018-06-24T03:23:44.329Z,48
2018-06-24T03:24:53.184Z,64
2018-06-24T03:26:02.946Z,96
2018-06-24T03:27:11.812Z,108
2018-06-24T03:28:20.946Z,100
2018-06-24T03:29:29.804Z,84
2018-06-24T03:30:38.662Z,76
2018-06-24T03:31:47.850Z,76
2018-06-24T03:32:56.987Z,88
2018-06-24T03:34:05.845Z,100
2018-06-24T03:35:14.707Z,112
2018-06-24T03:36:23.576Z,116
2018-06-24T03:37:32.861Z,112
2018-06-24T03:38:41.715Z,112
2018-06-24T03:39:50.571Z,160
2018-06-24T03:40:59.430Z,176
2018-06-24T03:42:08.288Z,180
2018-06-24T03:43:17.144Z,180
2018-06-24T03:44:26.001Z,180
2018-06-24T03:45:34.862Z,184
2018-06-24T03:46:43.993Z,160
2018-06-24T03:47:52.853Z,164
2018-06-24T03:49:01.712Z,176
2018-06-24T03:50:10.845Z,172
2018-06-24T03:51:19.706Z,184
2018-06-24T03:52:28.568Z,180
2018-06-24T03:53:37.418Z,176
2018-06-24T03:54:46.633Z,164
2018-06-24T03:55:55.775Z,164
2018-06-24T03:57:04.628Z,172
2018-06-24T03:58:14.040Z,184
2018-06-24T03:59:22.898Z,196
2018-06-24T04:00:32.412Z,196
2018-06-24T04:01:41.270Z,200
2018-06-24T04:02:50.129Z,212
2018-06-24T04:03:58.989Z,216
2018-06-24T04:05:07.850Z,228
2018-06-24T04:06:16.804Z,244
2018-06-24T04:07:25.662Z,256
2018-06-24T04:08:34.525Z,272
2018-06-24T04:09:43.383Z,296
2018-06-24T04:10:52.242Z,332
2018-06-24T04:12:01.148Z,384
2018-06-24T04:13:10.004Z,424
2018-06-24T04:14:18.863Z,480
2018-06-24T04:15:27.718Z,520
2018-06-24T04:16:36.577Z,480
2018-06-24T04:17:45.585Z,512
2018-06-24T04:18:54.728Z,536
2018-06-24T04:20:03.586Z,524
2018-06-24T04:21:12.444Z,540
2018-06-24T04:22:21.300Z,548
2018-06-24T04:23:30.409Z,532
2018-06-24T04:24:39.271Z,520
2018-06-24T04:25:48.501Z,536
2018-06-24T04:26:57.278Z,584
2018-06-24T04:28:06.136Z,640
2018-06-24T04:29:14.998Z,708
2018-06-24T04:30:23.856Z,748
2018-06-24T04:31:32.714Z,736
2018-06-24T04:32:41.574Z,756
2018-06-24T04:33:50.430Z,828
2018-06-24T04:34:59.713Z,912
2018-06-24T04:36:08.847Z,984
2018-06-24T04:37:17.712Z,1076
2018-06-24T04:38:26.845Z,1288
2018-06-24T04:39:35.704Z,1592
2018-06-24T04:40:44.663Z,1868
2018-06-24T04:41:53.521Z,2072
2018-06-24T04:43:02.936Z,2156
2018-06-24T04:44:11.795Z,2224
2018-06-24T04:45:20.656Z,2308
2018-06-24T04:46:29.511Z,2420
2018-06-24T04:47:38.378Z,2504
2018-06-24T04:48:47.237Z,2448
2018-06-24T04:49:56.374Z,2324
2018-06-24T04:51:05.236Z,2160
2018-06-24T04:52:14.474Z,2016
2018-06-24T04:53:23.333Z,1880
2018-06-24T04:54:32.196Z,1796
2018-06-24T04:55:41.057Z,1688
2018-06-24T04:56:50.191Z,1576
2018-06-24T04:57:59.330Z,1400
2018-06-24T04:59:08.189Z,1268
2018-06-24T05:00:17.048Z,1204
2018-06-24T05:01:26.184Z,1152
2018-06-24T05:02:35.043Z,988
2018-06-24T05:05:25.643Z,840
2018-06-24T05:06:35.202Z,796
2018-06-24T05:07:44.347Z,816
2018-06-24T05:08:53.630Z,920
2018-06-24T05:10:02.490Z,992
2018-06-24T05:11:11.350Z,1044
2018-06-24T05:12:20.209Z,1056
2018-06-24T05:13:29.065Z,984
2018-06-24T05:14:38.349Z,936
2018-06-24T05:15:47.484Z,976
2018-06-24T05:16:56.346Z,1020
2018-06-24T05:18:05.760Z,1112
2018-06-24T05:19:14.620Z,1236
2018-06-24T05:20:23.529Z,1320
2018-06-24T05:21:32.388Z,1400
2018-06-24T05:22:41.248Z,1524
2018-06-24T05:23:50.389Z,1540
2018-06-24T05:24:59.253Z,1476
2018-06-24T05:26:08.212Z,1540
2018-06-24T05:27:17.072Z,1600
2018-06-24T05:28:25.930Z,1556
2018-06-24T05:29:34.790Z,1608
2018-06-24T05:30:43.650Z,1476
2018-06-24T05:31:52.658Z,1440
2018-06-24T05:33:01.517Z,1684
2018-06-24T05:34:10.376Z,1864
2018-06-24T05:35:19.233Z,1880
2018-06-24T05:36:28.094Z,2000
2018-06-24T05:37:37.051Z,2000
2018-06-24T05:38:45.906Z,2104
2018-06-24T05:39:54.764Z,2260
2018-06-24T05:41:03.621Z,2260
2018-06-24T05:42:12.759Z,2312
2018-06-24T05:43:21.895Z,2676
2018-06-24T05:44:30.754Z,2468
2018-06-24T05:45:39.617Z,2260
2018-06-24T05:46:48.755Z,2408
2018-06-24T05:47:57.609Z,2476
2018-06-24T05:49:06.743Z,2596
2018-06-24T05:50:15.602Z,2668
2018-06-24T05:51:24.461Z,2736
2018-06-24T05:52:33.324Z,2700
2018-06-24T05:53:42.454Z,2636
2018-06-24T05:54:51.463Z,2576
2018-06-24T05:56:00.325Z,2416
2018-06-24T05:57:09.180Z,2364
2018-06-24T05:58:18.040Z,2432
2018-06-24T05:59:26.899Z,2600
2018-06-24T06:00:36.037Z,2476
2018-06-24T06:01:44.897Z,2840
2018-06-24T06:02:54.155Z,2764
2018-06-24T06:04:03.234Z,2688
2018-06-24T06:05:12.369Z,2592
2018-06-24T06:06:21.330Z,2416
2018-06-24T06:07:30.189Z,2304
2018-06-24T06:08:39.598Z,2216
2018-06-24T06:09:48.459Z,2204
2018-06-24T06:10:57.317Z,2076
2018-06-24T06:12:06.528Z,1884
2018-06-24T06:13:15.403Z,1728
2018-06-24T06:14:24.244Z,2088
2018-06-24T06:15:33.102Z,2136
2018-06-24T06:16:41.961Z,1524
2018-06-24T06:17:50.873Z,1716
2018-06-24T06:18:59.735Z,1572
2018-06-24T06:20:08.871Z,1588
2018-06-24T06:21:17.739Z,1616
2018-06-24T06:22:26.606Z,2628
2018-06-24T06:23:35.611Z,3184
2018-06-24T06:24:44.475Z,3272
2018-06-24T06:25:53.339Z,3304
2018-06-24T06:27:02.478Z,3416
2018-06-24T06:28:11.338Z,3376
2018-06-24T06:29:20.201Z,3500
2018-06-24T06:30:29.061Z,4060
2018-06-24T06:31:37.921Z,4588
2018-06-24T06:32:46.781Z,5588
2018-06-24T06:33:55.640Z,5592
2018-06-24T06:35:04.602Z,5408
2018-06-24T06:36:13.461Z,5652
2018-06-24T06:37:22.597Z,4972
2018-06-24T06:38:31.458Z,6492
2018-06-24T06:39:40.589Z,6808
2018-06-24T06:40:49.449Z,7176
2018-06-24T06:41:58.307Z,7924
2018-06-24T06:43:07.171Z,7788
2018-06-24T06:44:16.032Z,7532
2018-06-24T06:45:25.572Z,7056
2018-06-24T06:46:35.367Z,7632
2018-06-24T06:47:44.226Z,7456
2018-06-24T06:48:53.087Z,7572
2018-06-24T06:50:01.947Z,7692
2018-06-24T06:51:10.851Z,7344
2018-06-24T06:52:20.217Z,7932
2018-06-24T06:53:29.080Z,8256
2018-06-24T06:54:38.218Z,8132
2018-06-24T06:55:47.361Z,7244
2018-06-24T06:56:56.224Z,6092
2018-06-24T06:58:05.135Z,5752
2018-06-24T06:59:13.999Z,5616
2018-06-24T07:00:23.325Z,4932
2018-06-24T07:01:32.185Z,4560
2018-06-24T07:02:41.326Z,4700
2018-06-24T07:03:50.800Z,6164
2018-06-24T07:04:59.938Z,7068
2018-06-24T07:06:09.095Z,6848
2018-06-24T07:07:18.229Z,6692
2018-06-24T07:08:27.087Z,6752
2018-06-24T07:09:35.950Z,6220
2018-06-24T07:10:45.098Z,6836
2018-06-24T07:11:54.239Z,7276
2018-06-24T07:13:03.162Z,7316
2018-06-24T07:14:12.696Z,6436
2018-06-24T07:15:21.560Z,5264
2018-06-24T07:16:30.424Z,4088
2018-06-24T07:17:39.561Z,3516
2018-06-24T07:18:48.429Z,3880
2018-06-24T07:19:57.289Z,3816
2018-06-24T07:21:06.152Z,3604
2018-06-24T07:22:15.015Z,4092
2018-06-24T07:23:23.874Z,4412
2018-06-24T07:24:32.735Z,4512
2018-06-24T07:25:42.157Z,4484
2018-06-24T07:26:51.117Z,4228
2018-06-24T07:27:59.976Z,4628
2018-06-24T07:29:08.838Z,5292
2018-06-24T07:30:17.700Z,5336
2018-06-24T07:31:26.559Z,5500
2018-06-24T07:32:36.124Z,4860
2018-06-24T07:33:45.848Z,5776
2018-06-24T07:34:55.352Z,6024
2018-06-24T07:36:04.214Z,5588
2018-06-24T07:37:13.077Z,4856
2018-06-24T07:38:21.983Z,4776
2018-06-24T07:39:31.402Z,4408
2018-06-24T07:40:40.264Z,4108
2018-06-24T07:41:49.126Z,4720
2018-06-24T07:42:57.983Z,4648
2018-06-24T07:44:07.223Z,4192
2018-06-24T07:45:16.087Z,4944
2018-06-24T07:46:24.943Z,4852
2018-06-24T07:47:34.082Z,4952
2018-06-24T07:48:42.942Z,4884
2018-06-24T07:49:51.852Z,5320
2018-06-24T07:51:00.718Z,5408
2018-06-24T07:52:09.579Z,4588
2018-06-24T07:53:18.443Z,5748
2018-06-24T07:54:27.305Z,4792
2018-06-24T07:55:36.441Z,4080
2018-06-24T07:56:45.306Z,5768
2018-06-24T07:57:54.442Z,5680
2018-06-24T07:59:03.578Z,5396
2018-06-24T08:00:12.438Z,5080
2018-06-24T08:01:21.353Z,5980
2018-06-24T08:02:30.223Z,5400
2018-06-24T08:03:39.088Z,5356
2018-06-24T08:04:48.225Z,4112
2018-06-24T08:05:57.084Z,3204
2018-06-24T08:07:05.995Z,2928
2018-06-24T08:08:14.853Z,2132
2018-06-24T08:09:23.712Z,4760
2018-06-24T08:10:32.570Z,3996
2018-06-24T08:11:41.433Z,4836
2018-06-24T08:12:50.724Z,3664
2018-06-24T08:13:59.582Z,5220
2018-06-24T08:15:09.004Z,6772
2018-06-24T08:16:17.865Z,8436
2018-06-24T08:17:26.726Z,9760
2018-06-24T08:18:35.936Z,9680
2018-06-24T08:19:44.800Z,10292
2018-06-24T08:20:53.665Z,10916
2018-06-24T08:22:02.804Z,11336
2018-06-24T08:23:11.667Z,11068
2018-06-24T08:24:20.807Z,10840
2018-06-24T08:25:29.669Z,10800
2018-06-24T08:26:38.528Z,10764
2018-06-24T08:27:47.388Z,10624
2018-06-24T08:28:56.249Z,11008
2018-06-24T08:30:05.387Z,10896
2018-06-24T08:31:14.523Z,10808
2018-06-24T08:32:23.386Z,10764
2018-06-24T08:33:32.244Z,10776
2018-06-24T08:34:41.385Z,11364
2018-06-24T08:35:50.352Z,11908
2018-06-24T08:36:59.214Z,11552
2018-06-24T08:38:08.069Z,11196
2018-06-24T08:39:17.214Z,10392
2018-06-24T08:40:26.080Z,11792
2018-06-24T08:41:35.219Z,10380
2018-06-24T08:42:44.078Z,9364
2018-06-24T08:43:52.938Z,6400
2018-06-24T08:45:01.801Z,6112
2018-06-24T08:46:10.661Z,4924
2018-06-24T08:47:20.132Z,5100
2018-06-24T08:48:30.299Z,4252
2018-06-24T08:49:39.160Z,4624
2018-06-24T08:50:48.301Z,5100
2018-06-24T08:51:57.166Z,6864
2018-06-24T08:53:06.025Z,7876
2018-06-24T08:54:15.197Z,7460
2018-06-24T08:55:24.316Z,9912
2018-06-24T08:56:33.179Z,9360
2018-06-24T08:57:42.044Z,7504
2018-06-24T08:58:51.256Z,9804
2018-06-24T09:00:00.126Z,8748
2018-06-24T09:01:09.276Z,6936
2018-06-24T09:02:18.135Z,7316
2018-06-24T09:03:27.273Z,6304
2018-06-24T09:04:36.234Z,7532
2018-06-24T09:05:45.096Z,8772
2018-06-24T09:06:54.235Z,9792
2018-06-24T09:08:03.113Z,9652
2018-06-24T09:09:12.607Z,10080
2018-06-24T09:10:21.468Z,8228
2018-06-24T09:11:30.330Z,7364
2018-06-24T09:12:39.196Z,11320
2018-06-24T09:13:48.061Z,8740
2018-06-24T09:14:57.323Z,5492
2018-06-24T09:16:06.578Z,5220
2018-06-24T09:17:15.437Z,8656
2018-06-24T09:18:24.583Z,11116
2018-06-24T09:19:33.445Z,11624
2018-06-24T09:20:42.309Z,11868
2018-06-24T09:21:51.522Z,8972
2018-06-24T09:23:00.381Z,6076
2018-06-24T09:24:09.246Z,5888
2018-06-24T09:25:18.107Z,5416
2018-06-24T09:26:26.969Z,7864
2018-06-24T09:27:35.885Z,8548
2018-06-24T09:28:45.311Z,10168
2018-06-24T09:29:54.168Z,10196
2018-06-24T09:31:03.317Z,9340
2018-06-24T09:32:12.175Z,10136
2018-06-24T09:33:21.384Z,8740
2018-06-24T09:34:30.246Z,13560
2018-06-24T09:35:39.108Z,11200
2018-06-24T09:36:47.968Z,8752
2018-06-24T09:37:56.827Z,7512
2018-06-24T09:39:05.788Z,8092
2018-06-24T09:40:14.924Z,10132
2018-06-24T09:41:24.065Z,9360
2018-06-24T09:42:32.926Z,8568
2018-06-24T09:43:41.788Z,6944
2018-06-24T09:44:50.698Z,7176
2018-06-24T09:45:59.557Z,6040
2018-06-24T09:47:08.981Z,5404
2018-06-24T09:48:17.842Z,6732
2018-06-24T09:49:27.002Z,6428
2018-06-24T09:50:36.290Z,7376
2018-06-24T09:51:45.155Z,6228
2018-06-24T09:52:54.411Z,6792
2018-06-24T09:54:03.157Z,7472
2018-06-24T09:55:12.031Z,9688
2018-06-24T09:56:20.991Z,8516
2018-06-24T09:57:29.856Z,11784
2018-06-24T09:58:38.720Z,12212
2018-06-24T09:59:47.856Z,11772
2018-06-24T10:00:57.269Z,11244
2018-06-24T10:02:06.129Z,11908
2018-06-24T10:03:15.270Z,10852
2018-06-24T10:04:24.134Z,11596
2018-06-24T10:05:32.998Z,11580
2018-06-24T10:06:41.862Z,11340
2018-06-24T10:07:51.108Z,8828
2018-06-24T10:08:59.978Z,8892
2018-06-24T10:10:08.838Z,6984
2018-06-24T10:11:18.346Z,6924
2018-06-24T10:12:27.213Z,8060
2018-06-24T10:13:36.649Z,7916
2018-06-24T10:14:45.513Z,8636
2018-06-24T10:15:54.375Z,10692
2018-06-24T10:17:03.236Z,11212
2018-06-24T10:18:12.378Z,12240
2018-06-24T10:19:21.388Z,11316
2018-06-24T10:20:30.249Z,8088
2018-06-24T10:21:39.384Z,8468
2018-06-24T10:22:48.245Z,9156
2018-06-24T10:23:57.102Z,9484
2018-06-24T10:25:06.321Z,13024
2018-06-24T10:26:15.464Z,13740
2018-06-24T10:27:24.332Z,9868
2018-06-24T10:28:33.192Z,6644
2018-06-24T10:29:42.336Z,5020
2018-06-24T10:30:51.298Z,4128
2018-06-24T10:32:00.713Z,5204
2018-06-24T10:33:09.571Z,5376
2018-06-24T10:34:18.436Z,5072
2018-06-24T10:35:27.296Z,9460
2018-06-24T10:36:36.261Z,5780
2018-06-24T10:37:45.121Z,9536
2018-06-24T10:38:53.979Z,13932
2018-06-24T10:40:02.839Z,14508
2018-06-24T10:41:12.038Z,15916
2018-06-24T10:42:21.374Z,14816
2018-06-24T10:43:30.231Z,17056
2018-06-24T10:44:39.095Z,13904
2018-06-24T10:45:47.957Z,19776
2018-06-24T10:46:56.819Z,20000
2018-06-24T10:48:05.778Z,20352
2018-06-24T10:49:14.596Z,19136
2018-06-24T10:50:23.740Z,14972
2018-06-24T10:51:32.601Z,19328
2018-06-24T10:52:41.463Z,16272
2018-06-24T10:53:50.609Z,15032
2018-06-24T10:54:59.471Z,11600
2018-06-24T10:56:08.333Z,12084
2018-06-24T10:57:17.201Z,8748
2018-06-24T10:58:26.062Z,12844
2018-06-24T10:59:34.927Z,14972
2018-06-24T11:00:43.789Z,15304
2018-06-24T11:01:52.708Z,9188
2018-06-24T11:03:01.520Z,4724
2018-06-24T11:04:10.656Z,3716
2018-06-24T11:05:19.620Z,7280
2018-06-24T11:06:28.480Z,8952
2018-06-24T11:07:37.344Z,12144
2018-06-24T11:08:46.205Z,15708
2018-06-24T11:09:55.786Z,19136
2018-06-24T11:11:05.362Z,19680
2018-06-24T11:12:14.229Z,20384
2018-06-24T11:13:23.365Z,20640
2018-06-24T11:14:32.229Z,20736
2018-06-24T11:15:41.093Z,20096
2018-06-24T11:16:50.006Z,19648
2018-06-24T11:17:59.146Z,18176
2018-06-24T11:19:08.011Z,13512
2018-06-24T11:20:16.872Z,5676
2018-06-24T11:21:25.733Z,4876
2018-06-24T11:22:34.598Z,6052
2018-06-24T11:23:43.739Z,6368
2018-06-24T11:24:52.603Z,6796
2018-06-24T11:26:01.469Z,9032
2018-06-24T11:27:10.327Z,10808
2018-06-24T11:28:19.236Z,9428
2018-06-24T11:29:28.098Z,9800
2018-06-24T11:30:36.962Z,13012
2018-06-24T11:31:45.830Z,15944
2018-06-24T11:32:54.967Z,17600
2018-06-24T11:34:04.254Z,18176
2018-06-24T11:35:13.116Z,21760
2018-06-24T11:36:21.978Z,22880
2018-06-24T11:37:30.840Z,20704
2018-06-24T11:38:39.704Z,19392
2018-06-24T11:39:48.992Z,9336
2018-06-24T11:40:58.128Z,4464
2018-06-24T11:42:06.990Z,2656
2018-06-24T11:43:15.856Z,3148
2018-06-24T11:44:24.721Z,3164
2018-06-24T11:45:33.989Z,3848
2018-06-24T11:46:43.108Z,3884
2018-06-24T11:47:51.981Z,4528
2018-06-24T11:49:00.835Z,6764
2018-06-24T11:50:09.695Z,7588
2018-06-24T11:51:18.659Z,7816
2018-06-24T11:52:27.808Z,9264
2018-06-24T11:53:36.669Z,12632
2018-06-24T11:54:45.529Z,16736
2018-06-24T11:55:54.389Z,22592
2018-06-24T11:57:03.709Z,25952
2018-06-24T11:58:12.546Z,31104
2018-06-24T11:59:21.409Z,29216
2018-06-24T12:00:30.273Z,23776
2018-06-24T12:01:39.132Z,22816
2018-06-24T12:02:48.489Z,12504
2018-06-24T12:03:57.741Z,6812
2018-06-24T12:05:06.881Z,7460
2018-06-24T12:06:15.744Z,10220
2018-06-24T12:07:24.885Z,9316
2018-06-24T12:08:34.527Z,6288
2018-06-24T12:09:43.428Z,6420
2018-06-24T12:10:52.306Z,6172
2018-06-24T12:12:01.117Z,7356
2018-06-24T12:13:09.979Z,9088
2018-06-24T12:14:19.271Z,8172
2018-06-24T12:15:28.136Z,7120
2018-06-24T12:16:36.996Z,8112
2018-06-24T12:17:45.859Z,6012
2018-06-24T12:18:54.723Z,7288
2018-06-24T12:20:03.939Z,5576
2018-06-24T12:21:13.080Z,5004
2018-06-24T12:22:21.948Z,8184
2018-06-24T12:23:30.809Z,8656
2018-06-24T12:24:39.949Z,13672
2018-06-24T12:25:48.814Z,14868
2018-06-24T12:26:57.680Z,13172
2018-06-24T12:28:06.537Z,11056
2018-06-24T12:29:15.398Z,7808
2018-06-24T12:30:24.262Z,7760
2018-06-24T12:31:33.279Z,9380
2018-06-24T12:32:42.140Z,10840
2018-06-24T12:33:51.007Z,10076
2018-06-24T12:34:59.866Z,11048
2018-06-24T12:36:08.729Z,7756
2018-06-24T12:37:17.730Z,10064
2018-06-24T12:38:26.557Z,9340
2018-06-24T12:39:35.418Z,13628
2018-06-24T12:40:44.558Z,12280
2018-06-24T12:41:53.422Z,12580
2018-06-24T12:43:02.675Z,12700
2018-06-24T12:44:12.110Z,12396
2018-06-24T12:45:20.975Z,13864
2018-06-24T12:46:30.114Z,14668
2018-06-24T12:47:38.978Z,9592
2018-06-24T12:48:47.845Z,3672
2018-06-24T12:49:56.704Z,3424
2018-06-24T12:51:05.570Z,3728
2018-06-24T12:52:14.432Z,6104
2018-06-24T12:53:23.575Z,7184
2018-06-24T12:54:32.716Z,6800
2018-06-24T12:55:41.579Z,8392
2018-06-24T12:56:50.442Z,10468
2018-06-24T12:57:59.588Z,9436
2018-06-24T12:59:08.671Z,7836
2018-06-24T13:00:18.973Z,6236
2018-06-24T13:01:27.233Z,5860
2018-06-24T13:02:36.091Z,6392
2018-06-24T13:03:44.951Z,6016
2018-06-24T13:04:53.817Z,6580
2018-06-24T13:06:03.030Z,6376
2018-06-24T13:07:12.176Z,10248
2018-06-24T13:08:21.034Z,12976
2018-06-24T13:09:29.902Z,14576
2018-06-24T13:10:39.044Z,13632
2018-06-24T13:11:48.003Z,14340
2018-06-24T13:12:57.143Z,14704
2018-06-24T13:14:06.010Z,14504
2018-06-24T13:15:14.869Z,10460
2018-06-24T13:16:23.730Z,7964
2018-06-24T13:17:32.643Z,6892
2018-06-24T13:18:41.510Z,6108
2018-06-24T13:19:50.375Z,6008
2018-06-24T13:20:59.235Z,7008
2018-06-24T13:22:08.369Z,5512
2018-06-24T13:23:17.566Z,3776
2018-06-24T13:24:26.429Z,3756
2018-06-24T13:25:35.293Z,3716
2018-06-24T13:26:44.222Z,2896
2018-06-24T13:27:53.021Z,2624
2018-06-24T13:29:02.309Z,3196
2018-06-24T13:30:11.173Z,3640
2018-06-24T13:31:20.037Z,3848
2018-06-24T13:32:28.899Z,4932
2018-06-24T13:33:37.765Z,4448
2018-06-24T13:34:46.980Z,4136
2018-06-24T13:35:55.837Z,3616
2018-06-24T13:37:04.697Z,3156
2018-06-24T13:38:13.835Z,3720
2018-06-24T13:39:22.696Z,3880
2018-06-24T13:40:31.608Z,5112
2018-06-24T13:41:40.470Z,2528
2018-06-24T13:42:49.334Z,2044
2018-06-24T13:43:58.193Z,1840
2018-06-24T13:45:07.332Z,2368
2018-06-24T13:46:16.547Z,2868
2018-06-24T13:47:25.408Z,4012
2018-06-24T13:48:34.272Z,3412
2018-06-24T13:49:43.130Z,2684
2018-06-24T13:50:52.546Z,2812
2018-06-24T13:52:01.512Z,2532
2018-06-24T13:53:10.651Z,2120
2018-06-24T13:54:19.511Z,3140
2018-06-24T13:55:28.374Z,3500
2018-06-24T13:56:37.232Z,5936
2018-06-24T13:57:46.725Z,7660
2018-06-24T13:58:55.586Z,7024
2018-06-24T14:00:04.457Z,7400
2018-06-24T14:01:13.317Z,7524
2018-06-24T14:02:22.179Z,7436
2018-06-24T14:03:31.040Z,6736
2018-06-24T14:04:39.900Z,6224
2018-06-24T14:05:48.763Z,5404
2018-06-24T14:06:57.626Z,4440
2018-06-24T14:08:07.136Z,4620
2018-06-24T14:09:16.097Z,5052
2018-06-24T14:10:24.960Z,5320
2018-06-24T14:11:34.100Z,5572
2018-06-24T14:12:42.960Z,5672
2018-06-24T14:13:51.825Z,5200
2018-06-24T14:15:01.020Z,4492
2018-06-24T14:16:10.162Z,3688
2018-06-24T14:17:19.303Z,3392
2018-06-24T14:18:28.492Z,3380
2018-06-24T14:19:37.352Z,2964
2018-06-24T14:20:46.216Z,2456
2018-06-24T14:21:55.076Z,2984
2018-06-24T14:23:03.951Z,2780
2018-06-24T14:24:13.533Z,3040
2018-06-24T14:25:22.397Z,3096
2018-06-24T14:26:31.408Z,2432
2018-06-24T14:27:40.273Z,2312
2018-06-24T14:28:49.451Z,2772
2018-06-24T14:29:58.562Z,2288
2018-06-24T14:31:07.423Z,1932
2018-06-24T14:32:16.336Z,2108
2018-06-24T14:33:25.201Z,3028
2018-06-24T14:34:34.062Z,2736
2018-06-24T14:35:42.926Z,2952
2018-06-24T14:36:51.793Z,2636
2018-06-24T14:38:00.899Z,2568
2018-06-24T14:39:09.759Z,3784
2018-06-24T14:40:18.623Z,4284
2018-06-24T14:41:27.487Z,3288
2018-06-24T14:42:36.348Z,3364
2018-06-24T14:43:45.363Z,3096
2018-06-24T14:44:54.226Z,2572
2018-06-24T14:46:03.079Z,2124
2018-06-24T14:47:11.938Z,1860
2018-06-24T14:48:20.800Z,2488
2018-06-24T14:49:29.662Z,3008
2018-06-24T14:50:38.525Z,2800
2018-06-24T14:51:47.387Z,2896
2018-06-24T14:52:56.247Z,2124
2018-06-24T14:54:05.106Z,2684
2018-06-24T14:55:14.016Z,2624
2018-06-24T14:56:22.879Z,2508
2018-06-24T14:57:31.740Z,3712
2018-06-24T14:58:40.599Z,4612
2018-06-24T14:59:49.459Z,3752
2018-06-24T15:00:58.695Z,4792
2018-06-24T15:02:07.831Z,4920
2018-06-24T15:03:17.245Z,5332
2018-06-24T15:04:26.104Z,5732
2018-06-24T15:05:34.970Z,5092
2018-06-24T15:06:43.929Z,3384
2018-06-24T15:07:52.792Z,2852
2018-06-24T15:09:01.688Z,2476
2018-06-24T15:10:10.786Z,2156
2018-06-24T15:11:19.668Z,3368
2018-06-24T15:12:28.787Z,4348
2018-06-24T15:13:37.648Z,2592
2018-06-24T15:14:46.792Z,2332
2018-06-24T15:15:55.654Z,2204
2018-06-24T15:17:04.513Z,1368
2018-06-24T15:18:13.524Z,1756
2018-06-24T15:19:22.386Z,2136
2018-06-24T15:20:31.249Z,2072
2018-06-24T15:21:40.108Z,2140
2018-06-24T15:22:48.969Z,1908
2018-06-24T15:23:57.929Z,2176
2018-06-24T15:25:06.789Z,1872
2018-06-24T15:26:15.651Z,2100
2018-06-24T15:27:24.509Z,2360
2018-06-24T15:28:33.649Z,1644
2018-06-24T15:29:42.938Z,1572
2018-06-24T15:30:52.076Z,1600
2018-06-24T15:32:00.937Z,1852
2018-06-24T15:33:09.796Z,1796
2018-06-24T15:34:18.658Z,1940
2018-06-24T15:35:27.570Z,2568
2018-06-24T15:36:36.433Z,2548